Seahurst, Washington
Current Conditions -  °F | °C
As of 5:53 AM on Monday 22 Dec 2014 (Local Time) from KSEA Reporting Station
Few Clouds Few Clouds  
Wind Chill: 44°   Ceiling: Unl
Heat Index: 46°   Visibility: 10mi
Dew Point: 38°   Wind: 5mph
Humidity: 73%   Direction: 100°E
Pressure: 30.25"   Gusts: NA
Location:  47.47°N, 122.36°W
Report Text: KSEA 221353Z 10004KT 10SM FEW022 08/03 A3025 RMK AO2 SLP249 T00780033
Loading
Personal Weather Stations






























Interactive Weather Map New forecast layout! Learn more

10-Day Weather Forecast

Advertisements
Track Severe Weather on mobile